createdAt,value
2023-02-26T00:01:17.020Z,7.88
2023-02-26T00:03:44.208Z,8.13
2023-02-26T00:06:10.985Z,6.82
2023-02-26T00:08:37.976Z,7.63
2023-02-26T00:11:07.438Z,6.97
2023-02-26T00:13:35.690Z,7.82
2023-02-26T00:16:02.950Z,5.63
2023-02-26T00:18:30.019Z,6.25
2023-02-26T00:20:56.906Z,5.95
2023-02-26T00:23:24.665Z,5.57
2023-02-26T00:25:51.356Z,6.22
2023-02-26T00:28:18.399Z,5.43
2023-02-26T00:30:45.370Z,5.68
2023-02-26T00:33:12.276Z,4.72
2023-02-26T00:35:39.333Z,4.38
2023-02-26T00:38:17.708Z,4.30
2023-02-26T00:40:47.176Z,4.40
2023-02-26T00:43:17.258Z,3.53
2023-02-26T00:46:12.445Z,2.83
2023-02-26T00:48:51.045Z,2.80
2023-02-26T00:51:28.061Z,3.40
2023-02-26T00:54:03.288Z,2.78
2023-02-26T00:56:30.083Z,3.20
2023-02-26T00:58:57.848Z,2.13
2023-02-26T01:01:24.660Z,2.38
2023-02-26T01:03:51.733Z,3.33
2023-02-26T01:06:21.554Z,2.50
2023-02-26T01:09:10.121Z,2.42
2023-02-26T01:11:37.360Z,2.38
2023-02-26T01:14:05.009Z,2.30
2023-02-26T01:16:40.679Z,1.92
2023-02-26T01:19:23.128Z,2.22
2023-02-26T01:21:56.487Z,2.10
2023-02-26T01:24:24.993Z,2.30
2023-02-26T01:26:51.904Z,1.90
2023-02-26T01:29:18.916Z,2.00
2023-02-26T01:32:04.027Z,2.10
2023-02-26T01:34:52.243Z,2.20
2023-02-26T01:37:33.585Z,1.95
2023-02-26T01:40:03.331Z,2.15
2023-02-26T01:42:36.081Z,1.70
2023-02-26T01:45:15.539Z,2.03
2023-02-26T01:47:51.490Z,2.15
2023-02-26T01:50:29.958Z,2.10
2023-02-26T01:53:19.479Z,1.75
2023-02-26T01:55:51.600Z,1.93
2023-02-26T01:58:21.167Z,1.85
2023-02-26T02:00:47.951Z,1.70
2023-02-26T02:03:14.763Z,1.85
2023-02-26T02:05:53.705Z,1.70
2023-02-26T02:08:22.047Z,1.77
2023-02-26T02:10:52.296Z,1.90
2023-02-26T02:13:29.868Z,1.75
2023-02-26T02:16:33.969Z,2.00
2023-02-26T02:19:00.655Z,2.00
2023-02-26T02:21:55.188Z,1.83
2023-02-26T02:24:48.278Z,2.40
2023-02-26T02:27:23.969Z,1.65
2023-02-26T02:30:16.433Z,2.25
2023-02-26T02:33:00.027Z,1.80
2023-02-26T02:35:34.038Z,2.38
2023-02-26T02:38:09.248Z,2.10
2023-02-26T02:40:40.408Z,1.92
2023-02-26T02:43:30.887Z,2.05
2023-02-26T02:48:38.686Z,1.90
2023-02-26T02:51:11.516Z,2.03
2023-02-26T02:53:47.540Z,1.90
2023-02-26T02:56:23.870Z,2.08
2023-02-26T02:58:56.614Z,1.70
2023-02-26T03:01:27.840Z,1.92
2023-02-26T03:04:02.958Z,1.52
2023-02-26T03:06:29.764Z,1.67
2023-02-26T03:08:57.059Z,1.50
2023-02-26T03:11:23.928Z,1.92
2023-02-26T03:13:52.037Z,1.80
2023-02-26T03:16:43.320Z,1.70
2023-02-26T03:19:16.393Z,1.80
2023-02-26T03:22:13.779Z,1.60
2023-02-26T03:24:49.392Z,1.70
2023-02-26T03:27:28.330Z,1.70
2023-02-26T03:30:16.558Z,1.95
2023-02-26T03:32:58.401Z,1.80
2023-02-26T03:35:46.235Z,1.75
2023-02-26T03:38:26.159Z,1.60
2023-02-26T03:40:59.523Z,1.90
2023-02-26T03:43:39.090Z,1.60
2023-02-26T03:46:10.885Z,1.93
2023-02-26T03:48:37.843Z,1.90
2023-02-26T03:51:10.400Z,1.70
2023-02-26T03:53:58.787Z,1.60
2023-02-26T03:56:41.638Z,1.80
2023-02-26T03:59:09.106Z,2.00
2023-02-26T04:01:48.701Z,1.48
2023-02-26T04:04:42.541Z,1.40
2023-02-26T04:07:12.792Z,1.90
2023-02-26T04:09:48.545Z,1.52
2023-02-26T04:12:15.810Z,1.52
2023-02-26T04:14:42.525Z,1.65
2023-02-26T04:17:09.262Z,1.92
2023-02-26T04:19:36.005Z,1.60
2023-02-26T04:22:02.786Z,1.77
2023-02-26T04:24:29.896Z,1.55
2023-02-26T04:26:56.574Z,1.65
2023-02-26T04:29:23.262Z,1.98
2023-02-26T04:31:50.245Z,1.67
2023-02-26T04:34:17.051Z,1.80
2023-02-26T04:36:43.962Z,2.00
2023-02-26T04:39:10.876Z,1.50
2023-02-26T04:41:38.591Z,1.50
2023-02-26T04:44:05.839Z,1.60
2023-02-26T04:46:33.431Z,1.60
2023-02-26T04:49:00.238Z,1.70
2023-02-26T04:51:27.101Z,1.77
2023-02-26T04:53:53.870Z,2.00
2023-02-26T04:56:20.774Z,1.60
2023-02-26T04:58:47.465Z,1.60
2023-02-26T05:01:14.317Z,1.58
2023-02-26T05:03:41.019Z,2.15
2023-02-26T05:06:07.913Z,1.60
2023-02-26T05:08:34.684Z,1.77
2023-02-26T05:11:01.341Z,1.77
2023-02-26T05:13:28.069Z,1.67
2023-02-26T05:15:55.075Z,1.52
2023-02-26T05:18:21.876Z,1.50
2023-02-26T05:20:53.596Z,1.70
2023-02-26T05:23:20.466Z,1.80
2023-02-26T05:25:47.481Z,1.70
2023-02-26T05:28:14.266Z,1.88
2023-02-26T05:30:41.675Z,1.70
2023-02-26T05:33:08.626Z,1.50
2023-02-26T05:35:35.385Z,1.60
2023-02-26T05:38:02.110Z,1.60
2023-02-26T05:40:28.981Z,1.50
2023-02-26T05:42:55.839Z,1.63
2023-02-26T05:45:22.556Z,1.50
2023-02-26T05:47:49.325Z,1.67
2023-02-26T05:50:16.043Z,6.22
2023-02-26T05:52:42.764Z,3.92
2023-02-26T05:55:10.110Z,2.58
2023-02-26T05:57:36.801Z,2.10
2023-02-26T06:00:06.816Z,2.20
2023-02-26T06:02:33.766Z,2.00
2023-02-26T06:05:00.484Z,1.90
2023-02-26T06:07:27.148Z,1.48
2023-02-26T06:09:53.835Z,1.60
2023-02-26T06:12:20.755Z,2.00
2023-02-26T06:14:47.441Z,1.52
2023-02-26T06:17:14.470Z,1.98
2023-02-26T06:19:41.184Z,1.52
2023-02-26T06:22:08.492Z,1.98
2023-02-26T06:24:35.192Z,1.98
2023-02-26T06:27:01.941Z,1.60
2023-02-26T06:29:28.623Z,1.85
2023-02-26T06:31:55.496Z,1.60
2023-02-26T06:34:22.647Z,2.10
2023-02-26T06:36:49.392Z,1.77
2023-02-26T06:39:16.187Z,1.98
2023-02-26T06:41:42.868Z,1.63
2023-02-26T06:44:11.440Z,1.70
2023-02-26T06:46:38.521Z,2.00
2023-02-26T06:49:05.340Z,1.52
2023-02-26T06:51:32.391Z,1.85
2023-02-26T06:53:59.183Z,1.70
2023-02-26T06:56:26.380Z,1.80
2023-02-26T06:58:53.412Z,1.65
2023-02-26T07:01:20.499Z,1.63
2023-02-26T07:03:47.447Z,1.67
2023-02-26T07:06:26.833Z,1.75
2023-02-26T07:08:55.021Z,2.10
2023-02-26T07:11:22.002Z,2.22
2023-02-26T07:13:48.787Z,1.75
2023-02-26T07:16:15.550Z,1.60
2023-02-26T07:18:42.389Z,1.70
2023-02-26T07:21:09.358Z,1.83
2023-02-26T07:23:36.177Z,1.75
2023-02-26T07:26:02.990Z,1.50
2023-02-26T07:28:29.802Z,1.90
2023-02-26T07:30:57.302Z,1.52
2023-02-26T07:33:26.597Z,2.08
2023-02-26T07:35:53.361Z,1.55
2023-02-26T07:38:20.552Z,2.35
2023-02-26T07:40:47.556Z,1.63
2023-02-26T07:43:14.349Z,1.52
2023-02-26T07:45:41.063Z,1.77
2023-02-26T07:48:08.070Z,2.05
2023-02-26T07:50:34.978Z,1.85
2023-02-26T07:53:01.760Z,1.63
2023-02-26T07:55:28.624Z,1.80
2023-02-26T07:57:55.380Z,1.83
2023-02-26T08:00:22.333Z,1.60
2023-02-26T08:02:49.063Z,1.75
2023-02-26T08:05:15.821Z,1.52
2023-02-26T08:07:42.564Z,1.60
2023-02-26T08:10:10.582Z,1.60
2023-02-26T08:12:37.511Z,1.70
2023-02-26T08:15:05.727Z,1.60
2023-02-26T08:17:32.492Z,2.13
2023-02-26T08:19:59.225Z,1.80
2023-02-26T08:22:25.968Z,2.00
2023-02-26T08:24:52.741Z,1.70
2023-02-26T08:27:19.523Z,1.75
2023-02-26T08:29:50.193Z,1.60
2023-02-26T08:32:19.692Z,2.13
2023-02-26T08:34:47.222Z,1.80
2023-02-26T08:37:14.304Z,1.73
2023-02-26T08:39:41.185Z,1.60
2023-02-26T08:42:09.150Z,1.60
2023-02-26T08:44:36.220Z,1.63
2023-02-26T08:47:03.766Z,1.70
2023-02-26T08:49:30.560Z,1.70
2023-02-26T08:51:57.355Z,1.77
2023-02-26T08:54:24.120Z,1.90
2023-02-26T08:56:51.241Z,1.75
2023-02-26T08:59:18.097Z,1.90
2023-02-26T09:01:44.887Z,2.00
2023-02-26T09:04:11.591Z,1.52
2023-02-26T09:06:38.336Z,1.70
2023-02-26T09:09:05.141Z,1.70
2023-02-26T09:11:32.514Z,1.80
2023-02-26T09:13:59.725Z,1.80
2023-02-26T09:16:27.006Z,2.00
2023-02-26T09:18:54.033Z,1.67
2023-02-26T09:21:20.857Z,1.70
2023-02-26T09:23:47.923Z,2.10
2023-02-26T09:26:14.867Z,1.58
2023-02-26T09:28:41.789Z,1.55
2023-02-26T09:31:08.724Z,2.20
2023-02-26T09:33:36.599Z,1.50
2023-02-26T09:36:03.672Z,1.80
2023-02-26T09:38:30.491Z,1.30
2023-02-26T09:41:05.670Z,1.50
2023-02-26T09:43:43.344Z,1.65
2023-02-26T09:46:33.823Z,1.60
2023-02-26T09:54:01.015Z,1.58
2023-02-26T09:56:32.434Z,1.55
2023-02-26T09:58:59.354Z,1.55
2023-02-26T10:01:34.671Z,1.63
2023-02-26T10:04:18.246Z,1.50
2023-02-26T10:06:48.837Z,1.55
2023-02-26T10:09:30.644Z,1.80
2023-02-26T10:12:05.437Z,1.50
2023-02-26T10:14:51.116Z,1.42
2023-02-26T10:17:30.390Z,1.63
2023-02-26T10:20:07.103Z,1.52
2023-02-26T10:22:44.315Z,1.60
2023-02-26T10:25:22.530Z,1.40
2023-02-26T10:28:17.350Z,1.45
2023-02-26T10:30:51.330Z,1.50
2023-02-26T10:33:36.804Z,1.40
2023-02-26T10:36:21.715Z,1.17
2023-02-26T10:38:52.269Z,1.58
2023-02-26T10:41:24.479Z,1.33
2023-02-26T10:44:18.915Z,1.30
2023-02-26T10:46:45.673Z,1.45
2023-02-26T10:49:32.253Z,1.30
2023-02-26T10:52:10.449Z,1.27
2023-02-26T10:54:43.017Z,1.48
2023-02-26T10:57:23.124Z,1.30
2023-02-26T10:59:49.875Z,1.20
2023-02-26T11:02:42.084Z,1.30
2023-02-26T11:05:30.168Z,1.45
2023-02-26T11:08:12.603Z,1.40
2023-02-26T11:10:48.714Z,1.30
2023-02-26T11:13:15.458Z,1.15
2023-02-26T11:15:43.681Z,1.27
2023-02-26T11:18:17.076Z,1.30
2023-02-26T11:20:46.628Z,1.20
2023-02-26T11:23:17.720Z,1.17
2023-02-26T11:25:44.940Z,1.30
2023-02-26T11:28:26.002Z,1.23
2023-02-26T11:30:54.482Z,1.20
2023-02-26T11:33:35.720Z,1.40
2023-02-26T11:36:07.399Z,1.20
2023-02-26T11:38:34.415Z,1.23
2023-02-26T11:41:02.061Z,1.10
2023-02-26T11:43:44.978Z,1.20
2023-02-26T11:46:13.608Z,1.20
2023-02-26T11:48:48.603Z,1.50
2023-02-26T11:51:20.787Z,1.50
2023-02-26T11:53:55.824Z,1.50
2023-02-26T11:56:34.059Z,1.35
2023-02-26T11:59:17.252Z,1.30
2023-02-26T12:01:43.983Z,1.40
2023-02-26T12:04:13.687Z,1.40
2023-02-26T12:06:40.514Z,1.50
2023-02-26T12:09:14.427Z,1.40
2023-02-26T12:11:59.952Z,1.38
2023-02-26T12:15:04.383Z,1.40
2023-02-26T12:17:35.520Z,1.50
2023-02-26T12:20:50.262Z,1.50
2023-02-26T12:23:22.859Z,1.60
2023-02-26T12:26:03.765Z,1.40
2023-02-26T12:28:39.490Z,1.20
2023-02-26T12:31:21.416Z,1.40
2023-02-26T12:34:09.592Z,1.20
2023-02-26T12:37:13.653Z,1.38
2023-02-26T12:39:58.975Z,1.27
2023-02-26T12:42:40.773Z,1.30
2023-02-26T12:45:32.119Z,1.40
2023-02-26T12:48:24.444Z,1.40
2023-02-26T12:51:00.050Z,1.20
2023-02-26T12:53:49.928Z,1.35
2023-02-26T12:56:38.411Z,1.73
2023-02-26T12:59:35.612Z,1.40
2023-02-26T13:02:26.028Z,1.30
2023-02-26T13:05:25.359Z,1.30
2023-02-26T13:08:11.530Z,1.15
2023-02-26T13:10:49.181Z,1.20
2023-02-26T13:13:43.104Z,1.10
2023-02-26T13:16:24.129Z,1.30
2023-02-26T13:19:25.096Z,1.30
2023-02-26T13:22:11.861Z,1.30
2023-02-26T13:24:43.285Z,1.60
2023-02-26T13:27:11.966Z,1.35
2023-02-26T13:29:47.562Z,1.30
2023-02-26T13:32:23.765Z,1.20
2023-02-26T13:35:01.628Z,1.20
2023-02-26T13:37:39.856Z,1.67
2023-02-26T13:40:43.941Z,1.13
2023-02-26T13:43:39.118Z,1.45
2023-02-26T13:46:15.231Z,1.35
2023-02-26T13:49:12.359Z,1.20
2023-02-26T13:51:45.829Z,1.13
2023-02-26T13:54:14.231Z,1.10
2023-02-26T13:56:48.230Z,1.10
2023-02-26T13:59:19.318Z,1.20
2023-02-26T14:01:47.465Z,1.40
2023-02-26T14:04:21.709Z,1.38
2023-02-26T14:06:51.837Z,1.10
2023-02-26T14:09:55.324Z,1.10
2023-02-26T14:12:36.206Z,1.20
2023-02-26T14:15:37.276Z,1.10
2023-02-26T14:18:18.877Z,1.25
2023-02-26T14:20:46.600Z,1.13
2023-02-26T14:23:34.303Z,1.20
2023-02-26T14:26:06.224Z,1.30
2023-02-26T14:28:41.784Z,1.33
2023-02-26T14:31:14.724Z,1.20
2023-02-26T14:33:48.156Z,1.20
2023-02-26T14:36:32.236Z,1.20
2023-02-26T14:39:01.612Z,1.20
2023-02-26T14:41:33.548Z,1.15
2023-02-26T14:44:16.043Z,1.20
2023-02-26T14:46:44.273Z,1.83
2023-02-26T14:49:24.051Z,1.20
2023-02-26T14:51:50.715Z,1.17
2023-02-26T14:54:25.565Z,1.00
2023-02-26T14:56:57.663Z,1.00
2023-02-26T14:59:57.548Z,1.33
2023-02-26T15:02:27.406Z,1.52
2023-02-26T15:05:28.012Z,1.30
2023-02-26T15:08:09.793Z,1.20
2023-02-26T15:10:57.923Z,1.20
2023-02-26T15:13:31.700Z,1.10
2023-02-26T15:16:21.360Z,1.17
2023-02-26T15:18:50.786Z,1.15
2023-02-26T15:21:27.026Z,1.50
2023-02-26T15:23:55.731Z,1.00
2023-02-26T15:26:29.705Z,1.35
2023-02-26T15:28:58.674Z,1.00
2023-02-26T15:31:37.593Z,1.00
2023-02-26T15:34:04.390Z,1.10
2023-02-26T15:36:31.916Z,1.50
2023-02-26T15:39:07.005Z,1.08
2023-02-26T15:41:34.012Z,0.93
2023-02-26T15:44:05.007Z,1.20
2023-02-26T15:46:38.731Z,3.58
2023-02-26T15:49:17.019Z,2.38
2023-02-26T15:51:45.018Z,1.60
2023-02-26T15:54:19.674Z,1.83
2023-02-26T15:56:47.974Z,1.63
2023-02-26T15:59:20.033Z,1.73
2023-02-26T16:01:49.525Z,1.83
2023-02-26T16:04:19.456Z,2.50
2023-02-26T16:06:49.020Z,2.92
2023-02-26T16:09:57.166Z,3.05
2023-02-26T16:12:35.626Z,2.15
2023-02-26T16:15:07.599Z,2.88
2023-02-26T16:17:41.976Z,1.40
2023-02-26T16:20:16.570Z,2.08
2023-02-26T16:22:53.538Z,2.03
2023-02-26T16:25:34.534Z,1.70
2023-02-26T16:28:05.040Z,1.90
2023-02-26T16:33:03.147Z,1.70
2023-02-26T16:35:39.687Z,1.42
2023-02-26T16:38:23.803Z,1.60
2023-02-26T16:41:10.939Z,1.50
2023-02-26T16:43:49.388Z,1.88
2023-02-26T16:46:43.862Z,1.90
2023-02-26T16:49:24.977Z,1.60
2023-02-26T16:51:53.913Z,2.00
2023-02-26T16:54:25.655Z,1.90
2023-02-26T16:57:19.016Z,2.28
2023-02-26T16:59:59.334Z,2.33
2023-02-26T17:02:33.005Z,2.30
2023-02-26T17:05:05.522Z,3.08
2023-02-26T17:07:45.835Z,2.75
2023-02-26T17:13:06.543Z,2.25
2023-02-26T17:15:38.452Z,2.10
2023-02-26T17:18:05.388Z,2.65
2023-02-26T17:20:33.159Z,1.95
2023-02-26T17:23:01.388Z,2.00
2023-02-26T17:25:34.070Z,3.17
2023-02-26T17:28:02.037Z,2.17
2023-02-26T17:30:32.624Z,1.90
2023-02-26T17:33:01.302Z,1.83
2023-02-26T17:35:29.231Z,1.77
2023-02-26T17:37:57.092Z,1.92
2023-02-26T17:40:31.720Z,2.28
2023-02-26T17:43:00.085Z,2.10
2023-02-26T17:45:27.041Z,2.25
2023-02-26T17:47:53.861Z,2.67
2023-02-26T17:50:36.529Z,1.98
2023-02-26T17:53:04.739Z,1.90
2023-02-26T17:55:31.972Z,1.73
2023-02-26T17:57:59.249Z,1.85
2023-02-26T18:00:26.134Z,1.90
2023-02-26T18:02:52.859Z,2.90
2023-02-26T18:05:20.233Z,2.67
2023-02-26T18:07:48.835Z,2.25
2023-02-26T18:10:21.371Z,2.28
2023-02-26T18:12:50.626Z,2.90
2023-02-26T18:15:17.523Z,1.88
2023-02-26T18:17:44.355Z,2.03
2023-02-26T18:20:22.373Z,1.88
2023-02-26T18:22:50.545Z,2.25
2023-02-26T18:25:18.117Z,2.95
2023-02-26T18:27:55.161Z,2.50
2023-02-26T18:30:27.846Z,2.90
2023-02-26T18:32:55.296Z,2.40
2023-02-26T18:35:26.410Z,2.40
2023-02-26T18:37:54.944Z,2.85
2023-02-26T18:40:24.630Z,2.20
2023-02-26T18:42:52.381Z,2.60
2023-02-26T18:45:20.044Z,2.60
2023-02-26T18:47:47.724Z,2.35
2023-02-26T18:50:18.474Z,2.17
2023-02-26T18:52:45.357Z,3.00
2023-02-26T18:55:12.716Z,2.78
2023-02-26T18:57:40.511Z,2.70
2023-02-26T19:00:09.111Z,2.65
2023-02-26T19:02:36.019Z,2.92
2023-02-26T19:05:02.868Z,3.38
2023-02-26T19:07:29.768Z,3.17
2023-02-26T19:09:56.475Z,3.03
2023-02-26T19:12:24.393Z,2.72
2023-02-26T19:14:51.085Z,3.08
2023-02-26T19:17:18.233Z,2.33
2023-02-26T19:19:44.958Z,3.10
2023-02-26T19:22:15.863Z,2.95
2023-02-26T19:24:43.187Z,3.25
2023-02-26T19:27:12.123Z,2.90
2023-02-26T19:29:39.552Z,3.40
2023-02-26T19:32:07.880Z,3.95
2023-02-26T19:34:35.533Z,4.38
2023-02-26T19:37:02.401Z,3.53
2023-02-26T19:39:29.273Z,5.35
2023-02-26T19:41:56.055Z,5.60
2023-02-26T19:44:24.572Z,3.47
2023-02-26T19:46:51.546Z,2.85
2023-02-26T19:49:18.375Z,2.55
2023-02-26T19:51:45.493Z,3.60
2023-02-26T19:54:14.183Z,3.33
2023-02-26T19:56:42.388Z,3.53
2023-02-26T19:59:09.373Z,2.58
2023-02-26T20:01:36.237Z,2.78
2023-02-26T20:04:03.791Z,2.60
2023-02-26T20:06:30.818Z,2.60
2023-02-26T20:08:57.548Z,3.03
2023-02-26T20:11:26.301Z,2.58
2023-02-26T20:13:53.256Z,2.72
2023-02-26T20:16:20.067Z,3.38
2023-02-26T20:18:46.841Z,4.80
2023-02-26T20:21:14.070Z,3.80
2023-02-26T20:23:41.754Z,5.15
2023-02-26T20:26:13.892Z,3.58
2023-02-26T20:28:41.854Z,5.97
2023-02-26T20:31:09.650Z,7.43
2023-02-26T20:33:39.334Z,7.78
2023-02-26T20:36:08.293Z,9.80
2023-02-26T20:38:35.540Z,7.80
2023-02-26T20:41:02.581Z,7.25
2023-02-26T20:43:29.386Z,6.38
2023-02-26T20:45:56.621Z,5.00
2023-02-26T20:48:24.429Z,4.57
2023-02-26T20:50:53.501Z,3.70
2023-02-26T20:53:21.464Z,5.60
2023-02-26T20:55:48.633Z,5.25
2023-02-26T20:58:15.658Z,4.72
2023-02-26T21:00:43.032Z,4.68
2023-02-26T21:03:09.948Z,5.65
2023-02-26T21:05:38.560Z,4.05
2023-02-26T21:08:05.469Z,4.60
2023-02-26T21:10:32.712Z,4.47
2023-02-26T21:12:59.774Z,4.47
2023-02-26T21:15:26.638Z,4.03
2023-02-26T21:17:53.920Z,5.03
2023-02-26T21:20:22.231Z,5.35
2023-02-26T21:22:49.677Z,7.85
2023-02-26T21:25:16.923Z,7.18
2023-02-26T21:27:43.964Z,6.00
2023-02-26T21:30:12.281Z,6.00
2023-02-26T21:32:40.097Z,3.75
2023-02-26T21:35:08.795Z,4.43
2023-02-26T21:37:35.591Z,4.72
2023-02-26T21:40:02.366Z,4.70
2023-02-26T21:42:29.171Z,4.38
2023-02-26T21:44:55.941Z,3.35
2023-02-26T21:47:22.782Z,2.65
2023-02-26T21:49:49.570Z,2.40
2023-02-26T21:52:16.347Z,3.03
2023-02-26T21:54:43.165Z,2.97
2023-02-26T21:57:10.094Z,2.90
2023-02-26T21:59:36.887Z,3.25
2023-02-26T22:02:04.650Z,3.40
2023-02-26T22:04:33.716Z,3.25
2023-02-26T22:07:00.726Z,3.30
2023-02-26T22:09:27.667Z,3.25
2023-02-26T22:11:54.370Z,2.92
2023-02-26T22:14:21.124Z,3.05
2023-02-26T22:16:47.966Z,3.45
2023-02-26T22:19:14.835Z,3.30
2023-02-26T22:21:41.583Z,3.00
2023-02-26T22:24:08.582Z,3.10
2023-02-26T22:26:35.591Z,4.13
2023-02-26T22:29:03.668Z,3.30
2023-02-26T22:31:31.982Z,3.67
2023-02-26T22:33:59.910Z,4.32
2023-02-26T22:36:27.561Z,4.03
2023-02-26T22:38:54.513Z,3.97
2023-02-26T22:41:21.250Z,4.20
2023-02-26T22:43:48.022Z,3.92
2023-02-26T22:46:17.029Z,4.38
2023-02-26T22:48:44.003Z,4.80
2023-02-26T22:51:10.832Z,5.03
2023-02-26T22:53:37.898Z,5.53
2023-02-26T22:56:05.040Z,4.55
2023-02-26T22:58:31.729Z,4.25
2023-02-26T23:01:01.957Z,3.38
2023-02-26T23:05:56.380Z,3.15
2023-02-26T23:08:23.562Z,3.38
2023-02-26T23:10:50.469Z,4.40
2023-02-26T23:13:17.167Z,4.15
2023-02-26T23:15:44.363Z,4.00
2023-02-26T23:18:11.146Z,4.60
2023-02-26T23:20:37.841Z,4.57
2023-02-26T23:23:04.606Z,6.45
2023-02-26T23:25:31.308Z,5.13
2023-02-26T23:27:58.108Z,4.28
2023-02-26T23:30:25.031Z,4.00
2023-02-26T23:32:51.808Z,3.88
2023-02-26T23:35:18.560Z,3.65
2023-02-26T23:37:45.793Z,3.45
2023-02-26T23:40:14.569Z,3.08
2023-02-26T23:42:44.588Z,2.60
2023-02-26T23:45:12.193Z,3.47
2023-02-26T23:47:39.243Z,2.90
2023-02-26T23:50:06.973Z,2.60
2023-02-26T23:52:34.208Z,2.90
2023-02-26T23:55:02.451Z,2.55
2023-02-26T23:57:29.197Z,2.85
2023-02-26T23:59:56.010Z,2.42
